DAL2154 KLAX-KMSY
Flight info
| Callsign | DAL2154 |
|---|---|
| Flight time | 3h 13m |
| Altitude | 35000 |
| Route | DOTSS2 CNERY BLH SPTFR SSO PEQ Q4 CLL LCH AWDAD1 |
| Aircraft | B738/M-DE2E3FGHILORWXY/LB1 |
Departure
| Time | 2026-04-23 02:12 |
|---|---|
| Airport | Los Angeles International Airport (KLAX) |
Arrival
| Time | 2026-04-23 05:25 |
|---|---|
| Airport | Louis Armstrong New Orleans International Airport (KMSY) |
| Time | Latitude | Longitude | Altitude | Speed | Heading |
|---|---|---|---|---|---|
| 2026-04-23 01:29 | 33.94678 | -118.40645 | 125 ft | 0 kts | 259° |
| 2026-04-23 01:58 | 33.94679 | -118.40638 | 121 ft | 2 kts | 258° |
| 2026-04-23 01:59 | 33.94684 | -118.40614 | 125 ft | 3 kts | 251° |
| 2026-04-23 01:59 | 33.94691 | -118.40592 | 125 ft | 3 kts | 246° |
| 2026-04-23 01:59 | 33.94699 | -118.40572 | 125 ft | 1 kts | 245° |
| 2026-04-23 01:59 | 33.94701 | -118.40566 | 125 ft | 0 kts | 245° |
| 2026-04-23 02:05 | 33.94700 | -118.40570 | 125 ft | 2 kts | 255° |
| 2026-04-23 02:05 | 33.94710 | -118.40584 | 125 ft | 2 kts | 326° |
| 2026-04-23 02:06 | 33.94728 | -118.40585 | 125 ft | 3 kts | 1° |
| 2026-04-23 02:06 | 33.94753 | -118.40586 | 125 ft | 5 kts | 355° |
| 2026-04-23 02:06 | 33.94794 | -118.40593 | 121 ft | 6 kts | 351° |
| 2026-04-23 02:06 | 33.94837 | -118.40600 | 122 ft | 6 kts | 355° |
| 2026-04-23 02:07 | 33.94867 | -118.40569 | 125 ft | 6 kts | 72° |
| 2026-04-23 02:07 | 33.94872 | -118.40519 | 125 ft | 6 kts | 84° |
| 2026-04-23 02:07 | 33.94878 | -118.40469 | 122 ft | 6 kts | 82° |
| 2026-04-23 02:07 | 33.94884 | -118.40419 | 121 ft | 6 kts | 82° |
| 2026-04-23 02:08 | 33.94889 | -118.40371 | 121 ft | 6 kts | 82° |
| 2026-04-23 02:08 | 33.94894 | -118.40322 | 122 ft | 6 kts | 84° |
| 2026-04-23 02:08 | 33.94898 | -118.40275 | 125 ft | 6 kts | 82° |
| 2026-04-23 02:08 | 33.94903 | -118.40228 | 125 ft | 6 kts | 82° |
| 2026-04-23 02:09 | 33.94908 | -118.40181 | 123 ft | 6 kts | 83° |
| 2026-04-23 02:09 | 33.94913 | -118.40135 | 123 ft | 6 kts | 83° |
| 2026-04-23 02:09 | 33.94918 | -118.40087 | 125 ft | 6 kts | 83° |
| 2026-04-23 02:09 | 33.94923 | -118.40039 | 122 ft | 6 kts | 83° |
| 2026-04-23 02:10 | 33.94930 | -118.39980 | 125 ft | 8 kts | 77° |
| 2026-04-23 02:10 | 33.94955 | -118.39924 | 122 ft | 7 kts | 49° |
| 2026-04-23 02:10 | 33.95004 | -118.39912 | 123 ft | 7 kts | 357° |
| 2026-04-23 02:10 | 33.95040 | -118.39923 | 125 ft | 3 kts | 312° |
| 2026-04-23 02:11 | 33.95044 | -118.39947 | 125 ft | 3 kts | 271° |
| 2026-04-23 02:11 | 33.95039 | -118.39983 | 121 ft | 8 kts | 263° |
| 2026-04-23 02:11 | 33.95004 | -118.40314 | 122 ft | 74 kts | 263° |
| 2026-04-23 02:11 | 33.94915 | -118.41192 | 124 ft | 135 kts | 263° |
| 2026-04-23 02:12 | 33.94775 | -118.42512 | 231 ft | 175 kts | 262° |
| 2026-04-23 02:12 | 33.94620 | -118.43981 | 868 ft | 185 kts | 263° |
| 2026-04-23 02:12 | 33.94481 | -118.45548 | 1556 ft | 189 kts | 264° |
| 2026-04-23 02:12 | 33.94346 | -118.47144 | 2062 ft | 198 kts | 266° |
| 2026-04-23 02:13 | 33.94285 | -118.48776 | 2775 ft | 194 kts | 268° |
| 2026-04-23 02:13 | 33.94238 | -118.50394 | 3435 ft | 196 kts | 269° |
| 2026-04-23 02:13 | 33.94115 | -118.52036 | 4075 ft | 199 kts | 254° |
| 2026-04-23 02:13 | 33.93284 | -118.53424 | 4422 ft | 218 kts | 212° |
| 2026-04-23 02:14 | 33.91773 | -118.53907 | 4830 ft | 236 kts | 183° |
| 2026-04-23 02:14 | 33.90065 | -118.53834 | 5210 ft | 254 kts | 178° |
| 2026-04-23 02:14 | 33.88266 | -118.53658 | 5574 ft | 270 kts | 177° |
| 2026-04-23 02:14 | 33.86354 | -118.53463 | 6103 ft | 278 kts | 177° |
| 2026-04-23 02:15 | 33.82623 | -118.53116 | 7350 ft | 283 kts | 178° |
| 2026-04-23 02:15 | 33.80647 | -118.52948 | 7983 ft | 286 kts | 178° |
| 2026-04-23 02:15 | 33.78675 | -118.52787 | 8599 ft | 289 kts | 178° |
| 2026-04-23 02:16 | 33.76659 | -118.52627 | 9212 ft | 291 kts | 178° |
| 2026-04-23 02:16 | 33.74620 | -118.52467 | 9818 ft | 295 kts | 178° |
| 2026-04-23 02:16 | 33.72561 | -118.52298 | 10345 ft | 302 kts | 176° |
| 2026-04-23 02:16 | 33.70490 | -118.51486 | 10454 ft | 328 kts | 149° |
| 2026-04-23 02:17 | 33.68845 | -118.49483 | 10612 ft | 351 kts | 121° |
| 2026-04-23 02:17 | 33.67922 | -118.46716 | 10987 ft | 361 kts | 108° |
| 2026-04-23 02:17 | 33.67179 | -118.43806 | 11498 ft | 367 kts | 108° |
| 2026-04-23 02:17 | 33.66394 | -118.40903 | 11983 ft | 373 kts | 109° |
| 2026-04-23 02:18 | 33.65542 | -118.37942 | 12505 ft | 378 kts | 110° |
| 2026-04-23 02:18 | 33.64749 | -118.34902 | 12976 ft | 384 kts | 103° |
| 2026-04-23 02:18 | 33.64376 | -118.31699 | 13535 ft | 388 kts | 91° |
| 2026-04-23 02:18 | 33.64349 | -118.28456 | 14111 ft | 391 kts | 89° |
| 2026-04-23 02:19 | 33.64376 | -118.25173 | 14627 ft | 396 kts | 89° |
| 2026-04-23 02:19 | 33.64412 | -118.21842 | 15092 ft | 404 kts | 89° |
| 2026-04-23 02:19 | 33.64441 | -118.18441 | 15578 ft | 408 kts | 89° |
| 2026-04-23 02:19 | 33.64457 | -118.15032 | 16232 ft | 409 kts | 89° |
| 2026-04-23 02:20 | 33.64464 | -118.11641 | 16796 ft | 412 kts | 89° |
| 2026-04-23 02:20 | 33.64464 | -118.08176 | 17254 ft | 417 kts | 89° |
| 2026-04-23 02:20 | 33.64460 | -118.04663 | 17733 ft | 422 kts | 89° |
| 2026-04-23 02:20 | 33.64459 | -118.01112 | 18238 ft | 426 kts | 89° |
| 2026-04-23 02:21 | 33.64453 | -117.97575 | 18724 ft | 430 kts | 90° |
| 2026-04-23 02:21 | 33.64445 | -117.93959 | 19204 ft | 434 kts | 90° |
| 2026-04-23 02:21 | 33.64438 | -117.90322 | 19687 ft | 438 kts | 90° |
| 2026-04-23 02:21 | 33.64430 | -117.86638 | 20138 ft | 442 kts | 90° |
| 2026-04-23 02:22 | 33.64421 | -117.82929 | 20572 ft | 446 kts | 90° |
| 2026-04-23 02:22 | 33.64235 | -117.79192 | 21011 ft | 449 kts | 99° |
| 2026-04-23 02:22 | 33.63577 | -117.75566 | 21422 ft | 451 kts | 108° |
| 2026-04-23 02:22 | 33.62678 | -117.71948 | 21847 ft | 453 kts | 109° |
| 2026-04-23 02:23 | 33.61736 | -117.68310 | 22232 ft | 458 kts | 109° |
| 2026-04-23 02:23 | 33.60786 | -117.64636 | 22645 ft | 461 kts | 109° |
| 2026-04-23 02:23 | 33.59857 | -117.60991 | 23051 ft | 463 kts | 109° |
| 2026-04-23 02:23 | 33.58923 | -117.57272 | 23430 ft | 466 kts | 109° |
| 2026-04-23 02:24 | 33.57990 | -117.53520 | 23784 ft | 470 kts | 109° |
| 2026-04-23 02:24 | 33.57056 | -117.49749 | 24145 ft | 473 kts | 109° |
| 2026-04-23 02:24 | 33.56112 | -117.45937 | 24518 ft | 475 kts | 109° |
| 2026-04-23 02:24 | 33.55169 | -117.42128 | 24860 ft | 478 kts | 109° |
| 2026-04-23 02:25 | 33.54224 | -117.38326 | 25168 ft | 482 kts | 109° |
| 2026-04-23 02:25 | 33.53258 | -117.34446 | 25533 ft | 483 kts | 109° |
| 2026-04-23 02:25 | 33.52291 | -117.30570 | 25868 ft | 486 kts | 109° |
| 2026-04-23 02:25 | 33.51332 | -117.26730 | 26186 ft | 488 kts | 109° |
| 2026-04-23 02:26 | 33.50550 | -117.22743 | 26518 ft | 492 kts | 101° |
| 2026-04-23 02:26 | 33.50260 | -117.18639 | 26816 ft | 495 kts | 92° |
| 2026-04-23 02:26 | 33.50214 | -117.14529 | 27069 ft | 498 kts | 91° |
| 2026-04-23 02:26 | 33.50207 | -117.10354 | 27326 ft | 501 kts | 90° |
| 2026-04-23 02:27 | 33.50200 | -117.06153 | 27613 ft | 503 kts | 91° |
| 2026-04-23 02:27 | 33.50178 | -117.01937 | 27899 ft | 506 kts | 91° |
| 2026-04-23 02:27 | 33.50138 | -116.97768 | 28176 ft | 507 kts | 91° |
| 2026-04-23 02:27 | 33.50083 | -116.93523 | 28434 ft | 510 kts | 91° |
| 2026-04-23 02:28 | 33.50019 | -116.89256 | 28678 ft | 513 kts | 92° |
| 2026-04-23 02:28 | 33.49955 | -116.85269 | 28905 ft | 515 kts | 92° |
| 2026-04-23 02:28 | 33.49885 | -116.80952 | 29178 ft | 517 kts | 92° |
| 2026-04-23 02:28 | 33.49815 | -116.76679 | 29401 ft | 519 kts | 92° |
| 2026-04-23 02:29 | 33.49743 | -116.72336 | 29634 ft | 521 kts | 92° |
| 2026-04-23 02:29 | 33.49670 | -116.67982 | 29876 ft | 522 kts | 92° |
| 2026-04-23 02:29 | 33.49595 | -116.63610 | 30076 ft | 524 kts | 92° |
| 2026-04-23 02:29 | 33.49521 | -116.59283 | 30262 ft | 527 kts | 92° |
| 2026-04-23 02:30 | 33.49443 | -116.54867 | 30469 ft | 528 kts | 92° |
| 2026-04-23 02:30 | 33.49363 | -116.50445 | 30758 ft | 527 kts | 92° |
| 2026-04-23 02:30 | 33.49284 | -116.46107 | 31040 ft | 528 kts | 92° |
| 2026-04-23 02:30 | 33.49202 | -116.41694 | 31259 ft | 529 kts | 92° |
| 2026-04-23 02:31 | 33.49131 | -116.37267 | 31503 ft | 530 kts | 91° |
| 2026-04-23 02:31 | 33.49069 | -116.32826 | 31768 ft | 530 kts | 92° |
| 2026-04-23 02:31 | 33.49007 | -116.28466 | 31962 ft | 530 kts | 92° |
| 2026-04-23 02:31 | 33.48942 | -116.24039 | 32176 ft | 531 kts | 92° |
| 2026-04-23 02:32 | 33.48873 | -116.19599 | 32388 ft | 532 kts | 92° |
| 2026-04-23 02:32 | 33.48805 | -116.15164 | 32644 ft | 531 kts | 92° |
| 2026-04-23 02:32 | 33.48730 | -116.10714 | 32864 ft | 532 kts | 92° |
| 2026-04-23 02:32 | 33.48736 | -116.06338 | 33013 ft | 534 kts | 86° |
| 2026-04-23 02:33 | 33.49174 | -116.01903 | 33176 ft | 534 kts | 78° |
| 2026-04-23 02:33 | 33.50121 | -115.97587 | 33325 ft | 533 kts | 68° |
| 2026-04-23 02:33 | 33.51369 | -115.93407 | 33548 ft | 532 kts | 67° |
| 2026-04-23 02:33 | 33.52660 | -115.89231 | 33727 ft | 533 kts | 67° |
| 2026-04-23 02:34 | 33.53929 | -115.85102 | 33916 ft | 533 kts | 67° |
| 2026-04-23 02:34 | 33.55188 | -115.80914 | 34110 ft | 534 kts | 68° |
| 2026-04-23 02:34 | 33.56425 | -115.76715 | 34331 ft | 534 kts | 68° |
| 2026-04-23 02:34 | 33.57652 | -115.72491 | 34539 ft | 533 kts | 68° |
| 2026-04-23 02:35 | 33.58865 | -115.68290 | 34693 ft | 533 kts | 68° |
| 2026-04-23 02:35 | 33.60069 | -115.64123 | 34833 ft | 534 kts | 68° |
| 2026-04-23 02:35 | 33.60896 | -115.61265 | 34925 ft | 535 kts | 68° |
| 2026-04-23 02:36 | 33.62982 | -115.52706 | 34947 ft | 539 kts | 80° |
| 2026-04-23 02:36 | 33.63384 | -115.46777 | 34940 ft | 536 kts | 94° |
| 2026-04-23 02:36 | 33.63251 | -115.43764 | 34957 ft | 534 kts | 95° |
| 2026-04-23 02:37 | 33.62709 | -115.34909 | 34943 ft | 532 kts | 96° |
| 2026-04-23 02:37 | 33.62196 | -115.26084 | 34935 ft | 530 kts | 95° |
| 2026-04-23 02:38 | 33.61743 | -115.17257 | 34934 ft | 529 kts | 95° |
| 2026-04-23 02:38 | 33.61303 | -115.08446 | 34924 ft | 528 kts | 95° |
| 2026-04-23 02:39 | 33.60854 | -114.99678 | 34932 ft | 528 kts | 95° |
| 2026-04-23 02:39 | 33.60394 | -114.90897 | 34917 ft | 530 kts | 95° |
| 2026-04-23 02:40 | 33.59923 | -114.82021 | 34923 ft | 531 kts | 95° |
| 2026-04-23 02:40 | 33.59190 | -114.73249 | 34907 ft | 530 kts | 105° |
| 2026-04-23 02:41 | 33.57557 | -114.64594 | 34917 ft | 530 kts | 107° |
| 2026-04-23 02:41 | 33.55843 | -114.56019 | 34923 ft | 532 kts | 106° |
| 2026-04-23 02:42 | 33.54160 | -114.47348 | 34923 ft | 533 kts | 106° |
| 2026-04-23 02:42 | 33.52506 | -114.38659 | 34918 ft | 533 kts | 105° |
| 2026-04-23 02:43 | 33.50863 | -114.30027 | 34913 ft | 533 kts | 106° |
| 2026-04-23 02:43 | 33.49200 | -114.21348 | 34926 ft | 532 kts | 106° |
| 2026-04-23 02:44 | 33.47542 | -114.12752 | 34921 ft | 531 kts | 106° |
| 2026-04-23 02:44 | 33.45882 | -114.04172 | 34918 ft | 529 kts | 106° |
| 2026-04-23 02:45 | 33.44212 | -113.95575 | 34922 ft | 527 kts | 106° |
| 2026-04-23 02:45 | 33.42551 | -113.87057 | 34925 ft | 526 kts | 106° |
| 2026-04-23 02:46 | 33.40878 | -113.78501 | 34929 ft | 525 kts | 106° |
| 2026-04-23 02:46 | 33.39199 | -113.70036 | 34923 ft | 524 kts | 108° |
| 2026-04-23 02:47 | 33.37273 | -113.61603 | 34932 ft | 524 kts | 109° |
| 2026-04-23 02:47 | 33.35262 | -113.53274 | 34926 ft | 523 kts | 109° |
| 2026-04-23 02:48 | 33.33269 | -113.44936 | 34934 ft | 523 kts | 109° |
| 2026-04-23 02:48 | 33.31285 | -113.36523 | 34925 ft | 525 kts | 109° |
| 2026-04-23 02:49 | 33.29315 | -113.28143 | 34932 ft | 526 kts | 109° |
| 2026-04-23 02:49 | 33.27324 | -113.19704 | 34923 ft | 526 kts | 109° |
| 2026-04-23 02:50 | 33.25339 | -113.11332 | 34925 ft | 526 kts | 109° |
| 2026-04-23 02:50 | 33.23327 | -113.02882 | 34932 ft | 527 kts | 109° |
| 2026-04-23 02:51 | 33.21322 | -112.94485 | 34925 ft | 527 kts | 109° |
| 2026-04-23 02:51 | 33.19312 | -112.86092 | 34933 ft | 526 kts | 109° |
| 2026-04-23 02:52 | 33.17287 | -112.77667 | 34927 ft | 526 kts | 109° |
| 2026-04-23 02:52 | 33.15276 | -112.69319 | 34924 ft | 525 kts | 109° |
| 2026-04-23 02:53 | 33.13246 | -112.60925 | 34926 ft | 524 kts | 109° |
| 2026-04-23 02:53 | 33.11226 | -112.52600 | 34926 ft | 524 kts | 109° |
| 2026-04-23 02:54 | 33.09195 | -112.44249 | 34924 ft | 522 kts | 109° |
| 2026-04-23 02:54 | 33.07168 | -112.35950 | 34924 ft | 521 kts | 109° |
| 2026-04-23 02:55 | 33.05130 | -112.27640 | 34933 ft | 521 kts | 109° |
| 2026-04-23 02:55 | 33.03091 | -112.19348 | 34933 ft | 520 kts | 109° |
| 2026-04-23 02:56 | 33.01063 | -112.11121 | 34940 ft | 520 kts | 109° |
| 2026-04-23 02:56 | 32.99019 | -112.02855 | 34955 ft | 519 kts | 109° |
| 2026-04-23 02:57 | 32.96977 | -111.94624 | 34962 ft | 520 kts | 109° |
| 2026-04-23 02:57 | 32.94914 | -111.86336 | 34971 ft | 520 kts | 109° |
| 2026-04-23 02:58 | 32.92857 | -111.78100 | 34957 ft | 522 kts | 109° |
| 2026-04-23 02:58 | 32.90789 | -111.69837 | 34951 ft | 523 kts | 109° |
| 2026-04-23 02:59 | 32.88703 | -111.61530 | 34946 ft | 523 kts | 109° |
| 2026-04-23 02:59 | 32.86612 | -111.53231 | 34944 ft | 524 kts | 109° |
| 2026-04-23 03:00 | 32.84511 | -111.44918 | 34944 ft | 523 kts | 109° |
| 2026-04-23 03:00 | 32.82418 | -111.36662 | 34949 ft | 524 kts | 109° |
| 2026-04-23 03:01 | 32.80306 | -111.28356 | 34947 ft | 524 kts | 110° |
| 2026-04-23 03:01 | 32.78191 | -111.20069 | 34955 ft | 525 kts | 110° |
| 2026-04-23 03:02 | 32.76067 | -111.11763 | 34972 ft | 526 kts | 110° |
| 2026-04-23 03:02 | 32.73940 | -111.03473 | 34992 ft | 527 kts | 110° |
| 2026-04-23 03:03 | 32.71789 | -110.95109 | 35011 ft | 528 kts | 110° |
| 2026-04-23 03:03 | 32.69640 | -110.86791 | 35015 ft | 528 kts | 110° |
| 2026-04-23 03:04 | 32.67490 | -110.78489 | 35041 ft | 528 kts | 110° |
| 2026-04-23 03:04 | 32.65322 | -110.70146 | 35057 ft | 528 kts | 110° |
| 2026-04-23 03:05 | 32.63150 | -110.61810 | 35067 ft | 527 kts | 110° |
| 2026-04-23 03:05 | 32.60975 | -110.53489 | 35071 ft | 528 kts | 110° |
| 2026-04-23 03:06 | 32.58808 | -110.45224 | 35069 ft | 528 kts | 110° |
| 2026-04-23 03:06 | 32.56624 | -110.36915 | 35065 ft | 529 kts | 110° |
| 2026-04-23 03:07 | 32.54426 | -110.28582 | 35057 ft | 528 kts | 110° |
| 2026-04-23 03:07 | 32.52235 | -110.20294 | 35048 ft | 527 kts | 110° |
| 2026-04-23 03:08 | 32.50029 | -110.11976 | 35034 ft | 527 kts | 110° |
| 2026-04-23 03:08 | 32.47836 | -110.03736 | 35038 ft | 526 kts | 110° |
| 2026-04-23 03:09 | 32.45627 | -109.95458 | 35041 ft | 526 kts | 110° |
| 2026-04-23 03:09 | 32.43423 | -109.87222 | 35047 ft | 526 kts | 110° |
| 2026-04-23 03:10 | 32.41219 | -109.79012 | 35045 ft | 526 kts | 110° |
| 2026-04-23 03:10 | 32.38990 | -109.70733 | 35040 ft | 526 kts | 110° |
| 2026-04-23 03:11 | 32.36779 | -109.62540 | 35037 ft | 525 kts | 110° |
| 2026-04-23 03:11 | 32.34549 | -109.54303 | 35034 ft | 524 kts | 110° |
| 2026-04-23 03:12 | 32.32331 | -109.46134 | 35026 ft | 524 kts | 110° |
| 2026-04-23 03:12 | 32.30095 | -109.37917 | 35028 ft | 524 kts | 110° |
| 2026-04-23 03:13 | 32.27862 | -109.29740 | 35021 ft | 523 kts | 110° |
| 2026-04-23 03:13 | 32.26191 | -109.21353 | 35025 ft | 525 kts | 98° |
| 2026-04-23 03:14 | 32.25236 | -109.12849 | 35016 ft | 525 kts | 97° |
| 2026-04-23 03:14 | 32.24295 | -109.04269 | 35019 ft | 525 kts | 98° |
| 2026-04-23 03:15 | 32.23309 | -108.95754 | 35016 ft | 525 kts | 98° |
| 2026-04-23 03:15 | 32.22280 | -108.87183 | 35027 ft | 525 kts | 98° |
| 2026-04-23 03:16 | 32.21251 | -108.78684 | 35041 ft | 525 kts | 98° |
| 2026-04-23 03:16 | 32.19684 | -108.65850 | 35029 ft | 525 kts | 98° |
| 2026-04-23 03:17 | 32.18645 | -108.57363 | 35035 ft | 524 kts | 98° |
| 2026-04-23 03:17 | 32.17595 | -108.48835 | 35041 ft | 524 kts | 98° |
| 2026-04-23 03:18 | 32.16547 | -108.40369 | 35046 ft | 523 kts | 98° |
| 2026-04-23 03:18 | 32.15485 | -108.31852 | 35045 ft | 522 kts | 98° |
| 2026-04-23 03:19 | 32.14427 | -108.23412 | 35053 ft | 522 kts | 98° |
| 2026-04-23 03:19 | 32.13357 | -108.14920 | 35055 ft | 522 kts | 98° |
| 2026-04-23 03:20 | 32.12288 | -108.06478 | 35042 ft | 521 kts | 98° |
| 2026-04-23 03:20 | 32.11390 | -107.99430 | 35036 ft | 521 kts | 98° |
| 2026-04-23 03:21 | 32.10309 | -107.90975 | 35033 ft | 521 kts | 98° |
| 2026-04-23 03:21 | 32.09217 | -107.82490 | 35031 ft | 522 kts | 98° |
| 2026-04-23 03:22 | 32.08126 | -107.74053 | 35033 ft | 523 kts | 98° |
| 2026-04-23 03:22 | 32.07020 | -107.65546 | 35030 ft | 523 kts | 98° |
| 2026-04-23 03:23 | 32.05911 | -107.57088 | 35001 ft | 522 kts | 98° |
| 2026-04-23 03:23 | 32.04807 | -107.48677 | 35015 ft | 521 kts | 98° |
| 2026-04-23 03:24 | 32.03696 | -107.40239 | 35023 ft | 521 kts | 98° |
| 2026-04-23 03:24 | 32.02571 | -107.31779 | 35021 ft | 521 kts | 98° |
| 2026-04-23 03:25 | 32.01441 | -107.23333 | 35017 ft | 521 kts | 98° |
| 2026-04-23 03:25 | 32.00314 | -107.14924 | 35018 ft | 521 kts | 98° |
| 2026-04-23 03:26 | 31.99180 | -107.06526 | 35015 ft | 519 kts | 98° |
| 2026-04-23 03:26 | 31.98039 | -106.98118 | 35018 ft | 518 kts | 98° |
| 2026-04-23 03:27 | 31.96902 | -106.89784 | 35019 ft | 516 kts | 98° |
| 2026-04-23 03:27 | 31.95765 | -106.81478 | 35013 ft | 515 kts | 98° |
| 2026-04-23 03:28 | 31.94614 | -106.73114 | 35007 ft | 514 kts | 98° |
| 2026-04-23 03:28 | 31.93472 | -106.64859 | 35009 ft | 513 kts | 98° |
| 2026-04-23 03:29 | 31.92326 | -106.56601 | 35015 ft | 512 kts | 98° |
| 2026-04-23 03:29 | 31.91166 | -106.48300 | 35008 ft | 513 kts | 98° |
| 2026-04-23 03:30 | 31.90002 | -106.40013 | 34997 ft | 512 kts | 98° |
| 2026-04-23 03:30 | 31.88842 | -106.31778 | 34986 ft | 513 kts | 98° |
| 2026-04-23 03:31 | 31.87668 | -106.23492 | 34984 ft | 513 kts | 97° |
| 2026-04-23 03:31 | 31.86486 | -106.15209 | 34977 ft | 512 kts | 98° |
| 2026-04-23 03:32 | 31.85305 | -106.06965 | 34989 ft | 512 kts | 98° |
| 2026-04-23 03:32 | 31.84117 | -105.98698 | 34981 ft | 513 kts | 98° |
| 2026-04-23 03:33 | 31.82925 | -105.90445 | 34975 ft | 513 kts | 98° |
| 2026-04-23 03:33 | 31.81721 | -105.82148 | 34974 ft | 513 kts | 98° |
| 2026-04-23 03:34 | 31.80518 | -105.73925 | 34963 ft | 512 kts | 98° |
| 2026-04-23 03:34 | 31.79308 | -105.65664 | 34972 ft | 510 kts | 98° |
| 2026-04-23 03:35 | 31.78100 | -105.57466 | 34974 ft | 510 kts | 98° |
| 2026-04-23 03:35 | 31.76880 | -105.49237 | 34977 ft | 509 kts | 98° |
| 2026-04-23 03:36 | 31.75673 | -105.41095 | 34969 ft | 508 kts | 98° |
| 2026-04-23 03:36 | 31.74448 | -105.32877 | 34977 ft | 509 kts | 98° |
| 2026-04-23 03:37 | 31.73223 | -105.24709 | 34972 ft | 509 kts | 98° |
| 2026-04-23 03:37 | 31.71988 | -105.16506 | 34979 ft | 508 kts | 98° |
| 2026-04-23 03:38 | 31.70758 | -105.08373 | 34983 ft | 508 kts | 98° |
| 2026-04-23 03:38 | 31.69512 | -105.00180 | 34979 ft | 508 kts | 98° |
| 2026-04-23 03:39 | 31.68273 | -104.92058 | 34982 ft | 507 kts | 98° |
| 2026-04-23 03:39 | 31.67028 | -104.83942 | 34979 ft | 507 kts | 99° |
| 2026-04-23 03:40 | 31.65774 | -104.75794 | 34982 ft | 506 kts | 99° |
| 2026-04-23 03:40 | 31.64511 | -104.67637 | 34982 ft | 505 kts | 99° |
| 2026-04-23 03:41 | 31.63256 | -104.59563 | 34978 ft | 504 kts | 99° |
| 2026-04-23 03:41 | 31.61996 | -104.51484 | 34968 ft | 504 kts | 99° |
| 2026-04-23 03:42 | 31.60729 | -104.43396 | 34968 ft | 503 kts | 99° |
| 2026-04-23 03:42 | 31.59457 | -104.35316 | 34963 ft | 502 kts | 99° |
| 2026-04-23 03:43 | 31.58189 | -104.27290 | 34955 ft | 502 kts | 99° |
| 2026-04-23 03:43 | 31.56910 | -104.19231 | 34956 ft | 501 kts | 99° |
| 2026-04-23 03:44 | 31.55633 | -104.11226 | 34953 ft | 501 kts | 99° |
| 2026-04-23 03:44 | 31.54354 | -104.03221 | 34948 ft | 501 kts | 99° |
| 2026-04-23 03:45 | 31.53061 | -103.95178 | 34938 ft | 501 kts | 99° |
| 2026-04-23 03:45 | 31.51760 | -103.87119 | 34931 ft | 501 kts | 99° |
| 2026-04-23 03:46 | 31.50469 | -103.79153 | 34925 ft | 501 kts | 99° |
| 2026-04-23 03:46 | 31.49166 | -103.71140 | 34926 ft | 500 kts | 99° |
| 2026-04-23 03:47 | 31.47857 | -103.63120 | 34923 ft | 500 kts | 99° |
| 2026-04-23 03:47 | 31.46569 | -103.55144 | 34917 ft | 499 kts | 98° |
| 2026-04-23 03:48 | 31.45555 | -103.47104 | 34918 ft | 498 kts | 96° |
| 2026-04-23 03:48 | 31.44639 | -103.39030 | 34917 ft | 498 kts | 96° |
| 2026-04-23 03:49 | 31.43696 | -103.31028 | 34916 ft | 497 kts | 96° |
| 2026-04-23 03:49 | 31.42718 | -103.23045 | 34931 ft | 497 kts | 97° |
| 2026-04-23 03:50 | 31.41719 | -103.15025 | 34924 ft | 496 kts | 97° |
| 2026-04-23 03:50 | 31.40719 | -103.07050 | 34928 ft | 496 kts | 97° |
| 2026-04-23 03:51 | 31.39716 | -102.99061 | 34925 ft | 495 kts | 97° |
| 2026-04-23 03:51 | 31.38709 | -102.91075 | 34926 ft | 494 kts | 97° |
| 2026-04-23 03:52 | 31.37704 | -102.83150 | 34933 ft | 494 kts | 97° |
| 2026-04-23 03:52 | 31.36688 | -102.75184 | 34937 ft | 493 kts | 97° |
| 2026-04-23 03:53 | 31.35676 | -102.67282 | 34932 ft | 492 kts | 97° |
| 2026-04-23 03:53 | 31.34657 | -102.59359 | 34934 ft | 492 kts | 97° |
| 2026-04-23 03:54 | 31.33638 | -102.51486 | 34945 ft | 491 kts | 97° |
| 2026-04-23 03:54 | 31.32611 | -102.43583 | 34950 ft | 491 kts | 97° |
| 2026-04-23 03:55 | 31.31578 | -102.35683 | 34948 ft | 490 kts | 97° |
| 2026-04-23 03:55 | 31.30541 | -102.27783 | 34951 ft | 490 kts | 97° |
| 2026-04-23 03:56 | 31.29506 | -102.19940 | 34951 ft | 489 kts | 97° |
| 2026-04-23 03:56 | 31.28463 | -102.12073 | 34957 ft | 489 kts | 98° |
| 2026-04-23 03:57 | 31.27415 | -102.04202 | 34965 ft | 489 kts | 98° |
| 2026-04-23 03:57 | 31.26367 | -101.96363 | 34968 ft | 489 kts | 98° |
| 2026-04-23 03:58 | 31.25314 | -101.88535 | 34973 ft | 489 kts | 98° |
| 2026-04-23 03:58 | 31.24247 | -101.80646 | 34972 ft | 490 kts | 98° |
| 2026-04-23 03:59 | 31.23177 | -101.72761 | 34978 ft | 490 kts | 98° |
| 2026-04-23 03:59 | 31.22109 | -101.64926 | 34985 ft | 491 kts | 98° |
| 2026-04-23 04:00 | 31.21032 | -101.57061 | 34987 ft | 491 kts | 98° |
| 2026-04-23 04:00 | 31.19944 | -101.49164 | 34994 ft | 491 kts | 98° |
| 2026-04-23 04:01 | 31.18851 | -101.41264 | 34987 ft | 492 kts | 98° |
| 2026-04-23 04:01 | 31.17754 | -101.33360 | 34992 ft | 492 kts | 98° |
| 2026-04-23 04:02 | 31.16657 | -101.25511 | 34997 ft | 492 kts | 98° |
| 2026-04-23 04:02 | 31.15549 | -101.17612 | 34996 ft | 492 kts | 98° |
| 2026-04-23 04:03 | 31.14441 | -101.09759 | 35002 ft | 491 kts | 98° |
| 2026-04-23 04:03 | 31.13329 | -101.01903 | 34997 ft | 491 kts | 98° |
| 2026-04-23 04:04 | 31.12215 | -100.94068 | 34999 ft | 491 kts | 98° |
| 2026-04-23 04:04 | 31.11087 | -100.86172 | 34994 ft | 492 kts | 98° |
| 2026-04-23 04:05 | 31.09962 | -100.78334 | 35001 ft | 492 kts | 98° |
| 2026-04-23 04:05 | 31.08827 | -100.70454 | 34994 ft | 492 kts | 98° |
| 2026-04-23 04:06 | 31.07877 | -100.63888 | 34984 ft | 492 kts | 98° |
| 2026-04-23 04:06 | 31.06732 | -100.56016 | 34993 ft | 492 kts | 98° |
| 2026-04-23 04:07 | 31.05588 | -100.48175 | 34984 ft | 492 kts | 98° |
| 2026-04-23 04:07 | 31.04431 | -100.40285 | 34984 ft | 492 kts | 98° |
| 2026-04-23 04:08 | 31.03274 | -100.32423 | 34989 ft | 492 kts | 98° |
| 2026-04-23 04:08 | 31.02117 | -100.24603 | 34991 ft | 492 kts | 98° |
| 2026-04-23 04:09 | 31.00946 | -100.16718 | 34984 ft | 492 kts | 98° |
| 2026-04-23 04:09 | 30.99772 | -100.08856 | 34987 ft | 492 kts | 98° |
| 2026-04-23 04:10 | 30.98601 | -100.01017 | 34998 ft | 492 kts | 98° |
| 2026-04-23 04:10 | 30.97426 | -99.93197 | 35005 ft | 492 kts | 98° |
| 2026-04-23 04:11 | 30.96238 | -99.85335 | 34999 ft | 492 kts | 98° |
| 2026-04-23 04:11 | 30.95043 | -99.77461 | 35000 ft | 491 kts | 98° |
| 2026-04-23 04:12 | 30.93851 | -99.69639 | 35002 ft | 491 kts | 98° |
| 2026-04-23 04:12 | 30.92652 | -99.61807 | 34989 ft | 491 kts | 98° |
| 2026-04-23 04:13 | 30.91454 | -99.54012 | 34986 ft | 490 kts | 98° |
| 2026-04-23 04:13 | 30.90244 | -99.46183 | 34996 ft | 490 kts | 98° |
| 2026-04-23 04:14 | 30.89035 | -99.38368 | 34984 ft | 489 kts | 98° |
| 2026-04-23 04:14 | 30.87822 | -99.30562 | 35053 ft | 492 kts | 99° |
| 2026-04-23 04:15 | 30.87216 | -99.26681 | 35233 ft | 492 kts | 99° |
| 2026-04-23 04:15 | 30.86605 | -99.22772 | 35594 ft | 488 kts | 99° |
| 2026-04-23 04:15 | 30.85390 | -99.15029 | 35922 ft | 489 kts | 99° |
| 2026-04-23 04:16 | 30.84776 | -99.11124 | 36071 ft | 490 kts | 99° |
| 2026-04-23 04:16 | 30.84158 | -99.07203 | 36245 ft | 490 kts | 99° |
| 2026-04-23 04:16 | 30.83538 | -99.03278 | 36394 ft | 491 kts | 99° |
| 2026-04-23 04:16 | 30.82927 | -98.99417 | 36588 ft | 490 kts | 99° |
| 2026-04-23 04:17 | 30.82307 | -98.95503 | 36765 ft | 490 kts | 99° |
| 2026-04-23 04:17 | 30.81695 | -98.91655 | 36991 ft | 487 kts | 99° |
| 2026-04-23 04:17 | 30.81077 | -98.87769 | 36990 ft | 489 kts | 99° |
| 2026-04-23 04:18 | 30.79838 | -98.80006 | 37000 ft | 483 kts | 99° |
| 2026-04-23 04:18 | 30.79022 | -98.72351 | 37010 ft | 476 kts | 93° |
| 2026-04-23 04:19 | 30.78529 | -98.64678 | 37009 ft | 475 kts | 92° |
| 2026-04-23 04:19 | 30.78036 | -98.56998 | 37008 ft | 474 kts | 93° |
| 2026-04-23 04:20 | 30.77500 | -98.49384 | 37014 ft | 474 kts | 93° |
| 2026-04-23 04:20 | 30.76933 | -98.41725 | 37019 ft | 475 kts | 93° |
| 2026-04-23 04:21 | 30.76357 | -98.34077 | 37029 ft | 476 kts | 93° |
| 2026-04-23 04:21 | 30.75780 | -98.26426 | 37025 ft | 478 kts | 93° |
| 2026-04-23 04:22 | 30.75191 | -98.18698 | 37031 ft | 479 kts | 93° |
| 2026-04-23 04:22 | 30.74597 | -98.10943 | 37031 ft | 481 kts | 94° |
| 2026-04-23 04:23 | 30.74001 | -98.03234 | 37027 ft | 481 kts | 94° |
| 2026-04-23 04:23 | 30.73396 | -97.95460 | 37030 ft | 481 kts | 94° |
| 2026-04-23 04:24 | 30.72792 | -97.87722 | 37027 ft | 481 kts | 94° |
| 2026-04-23 04:24 | 30.72181 | -97.79996 | 37026 ft | 480 kts | 94° |
| 2026-04-23 04:25 | 30.71565 | -97.72266 | 37025 ft | 479 kts | 94° |
| 2026-04-23 04:25 | 30.70950 | -97.64613 | 37023 ft | 477 kts | 94° |
| 2026-04-23 04:26 | 30.70329 | -97.56929 | 37024 ft | 475 kts | 94° |
| 2026-04-23 04:26 | 30.69711 | -97.49336 | 37038 ft | 473 kts | 94° |
| 2026-04-23 04:27 | 30.69085 | -97.41706 | 37054 ft | 472 kts | 94° |
| 2026-04-23 04:27 | 30.68461 | -97.34144 | 37055 ft | 472 kts | 94° |
| 2026-04-23 04:28 | 30.67514 | -97.22769 | 37055 ft | 472 kts | 94° |
| 2026-04-23 04:28 | 30.66875 | -97.15155 | 37046 ft | 473 kts | 94° |
| 2026-04-23 04:29 | 30.66230 | -97.07532 | 37038 ft | 473 kts | 94° |
| 2026-04-23 04:29 | 30.65584 | -96.99965 | 37036 ft | 473 kts | 94° |
| 2026-04-23 04:30 | 30.64927 | -96.92330 | 37026 ft | 474 kts | 94° |
| 2026-04-23 04:30 | 30.64272 | -96.84752 | 37031 ft | 474 kts | 94° |
| 2026-04-23 04:31 | 30.63607 | -96.77110 | 37024 ft | 475 kts | 94° |
| 2026-04-23 04:31 | 30.62937 | -96.69471 | 37031 ft | 475 kts | 94° |
| 2026-04-23 04:32 | 30.62267 | -96.61872 | 37027 ft | 475 kts | 94° |
| 2026-04-23 04:32 | 30.61591 | -96.54262 | 37027 ft | 474 kts | 94° |
| 2026-04-23 04:33 | 30.60909 | -96.46620 | 37037 ft | 474 kts | 95° |
| 2026-04-23 04:33 | 30.60194 | -96.39042 | 37037 ft | 474 kts | 96° |
| 2026-04-23 04:34 | 30.59233 | -96.31440 | 37030 ft | 474 kts | 98° |
| 2026-04-23 04:34 | 30.58218 | -96.23916 | 37040 ft | 474 kts | 97° |
| 2026-04-23 04:35 | 30.57223 | -96.16382 | 37034 ft | 473 kts | 97° |
| 2026-04-23 04:35 | 30.56240 | -96.08800 | 37039 ft | 473 kts | 97° |
| 2026-04-23 04:36 | 30.55266 | -96.01267 | 37036 ft | 474 kts | 97° |
| 2026-04-23 04:36 | 30.54281 | -95.93679 | 37042 ft | 474 kts | 97° |
| 2026-04-23 04:37 | 30.53295 | -95.86130 | 37041 ft | 475 kts | 97° |
| 2026-04-23 04:37 | 30.52300 | -95.78550 | 37041 ft | 474 kts | 97° |
| 2026-04-23 04:38 | 30.51308 | -95.71026 | 37032 ft | 474 kts | 97° |
| 2026-04-23 04:38 | 30.50309 | -95.63497 | 37042 ft | 474 kts | 97° |
| 2026-04-23 04:39 | 30.49298 | -95.55910 | 37046 ft | 474 kts | 97° |
| 2026-04-23 04:39 | 30.48293 | -95.48394 | 37044 ft | 473 kts | 97° |
| 2026-04-23 04:40 | 30.47283 | -95.40873 | 37049 ft | 473 kts | 98° |
| 2026-04-23 04:40 | 30.46262 | -95.33311 | 37054 ft | 472 kts | 98° |
| 2026-04-23 04:41 | 30.45247 | -95.25819 | 37056 ft | 472 kts | 98° |
| 2026-04-23 04:41 | 30.44227 | -95.18324 | 37056 ft | 471 kts | 98° |
| 2026-04-23 04:42 | 30.43204 | -95.10844 | 37057 ft | 471 kts | 98° |
| 2026-04-23 04:42 | 30.42176 | -95.03364 | 37065 ft | 470 kts | 98° |
| 2026-04-23 04:43 | 30.41144 | -94.95883 | 37064 ft | 470 kts | 98° |
| 2026-04-23 04:43 | 30.40105 | -94.88382 | 37065 ft | 469 kts | 98° |
| 2026-04-23 04:44 | 30.39074 | -94.80964 | 37065 ft | 469 kts | 98° |
| 2026-04-23 04:44 | 30.38030 | -94.73481 | 37057 ft | 469 kts | 98° |
| 2026-04-23 04:45 | 30.36983 | -94.66037 | 37058 ft | 470 kts | 98° |
| 2026-04-23 04:45 | 30.35928 | -94.58544 | 37042 ft | 470 kts | 98° |
| 2026-04-23 04:46 | 30.34872 | -94.51096 | 37047 ft | 470 kts | 98° |
| 2026-04-23 04:46 | 30.33807 | -94.43598 | 37053 ft | 471 kts | 98° |
| 2026-04-23 04:47 | 30.32741 | -94.36127 | 37053 ft | 472 kts | 98° |
| 2026-04-23 04:47 | 30.31663 | -94.28597 | 37054 ft | 473 kts | 98° |
| 2026-04-23 04:48 | 30.30584 | -94.21110 | 37057 ft | 474 kts | 98° |
| 2026-04-23 04:48 | 30.29492 | -94.13553 | 37057 ft | 475 kts | 98° |
| 2026-04-23 04:49 | 30.28399 | -94.06018 | 37058 ft | 477 kts | 98° |
| 2026-04-23 04:49 | 30.27478 | -93.99702 | 37058 ft | 478 kts | 98° |
| 2026-04-23 04:50 | 30.26186 | -93.90868 | 37068 ft | 479 kts | 98° |
| 2026-04-23 04:50 | 30.25257 | -93.84545 | 37073 ft | 479 kts | 98° |
| 2026-04-23 04:51 | 30.24131 | -93.76907 | 37079 ft | 479 kts | 98° |
| 2026-04-23 04:51 | 30.23015 | -93.69364 | 37070 ft | 479 kts | 98° |
| 2026-04-23 04:52 | 30.21884 | -93.61763 | 37073 ft | 477 kts | 99° |
| 2026-04-23 04:52 | 30.20759 | -93.54235 | 37072 ft | 475 kts | 99° |
| 2026-04-23 04:53 | 30.19638 | -93.46755 | 37072 ft | 473 kts | 99° |
| 2026-04-23 04:53 | 30.18512 | -93.39270 | 37075 ft | 470 kts | 99° |
| 2026-04-23 04:54 | 30.17383 | -93.31787 | 36705 ft | 471 kts | 99° |
| 2026-04-23 04:54 | 30.16828 | -93.28133 | 36388 ft | 464 kts | 99° |
| 2026-04-23 04:54 | 30.16271 | -93.24463 | 35988 ft | 460 kts | 99° |
| 2026-04-23 04:55 | 30.15715 | -93.20813 | 35589 ft | 456 kts | 99° |
| 2026-04-23 04:55 | 30.15174 | -93.17255 | 35190 ft | 453 kts | 99° |
| 2026-04-23 04:55 | 30.14628 | -93.13675 | 34791 ft | 450 kts | 99° |
| 2026-04-23 04:55 | 30.14139 | -93.10111 | 34393 ft | 446 kts | 92° |
| 2026-04-23 04:56 | 30.14157 | -93.06615 | 34242 ft | 434 kts | 85° |
| 2026-04-23 04:56 | 30.14343 | -93.03129 | 33831 ft | 431 kts | 84° |
| 2026-04-23 04:56 | 30.14571 | -92.99688 | 33485 ft | 428 kts | 84° |
| 2026-04-23 04:56 | 30.14797 | -92.96256 | 33091 ft | 425 kts | 84° |
| 2026-04-23 04:57 | 30.15003 | -92.92895 | 32710 ft | 423 kts | 84° |
| 2026-04-23 04:57 | 30.15196 | -92.89505 | 32332 ft | 420 kts | 85° |
| 2026-04-23 04:57 | 30.15375 | -92.86144 | 31955 ft | 418 kts | 85° |
| 2026-04-23 04:57 | 30.15545 | -92.82798 | 31575 ft | 415 kts | 85° |
| 2026-04-23 04:58 | 30.15706 | -92.79514 | 31205 ft | 413 kts | 85° |
| 2026-04-23 04:58 | 30.15868 | -92.76203 | 30836 ft | 410 kts | 85° |
| 2026-04-23 04:58 | 30.16027 | -92.72916 | 30465 ft | 408 kts | 85° |
| 2026-04-23 04:58 | 30.16184 | -92.69640 | 30094 ft | 405 kts | 85° |
| 2026-04-23 04:59 | 30.16337 | -92.66434 | 29726 ft | 403 kts | 86° |
| 2026-04-23 04:59 | 30.16491 | -92.63200 | 29349 ft | 400 kts | 86° |
| 2026-04-23 04:59 | 30.16643 | -92.59994 | 28965 ft | 398 kts | 86° |
| 2026-04-23 04:59 | 30.16792 | -92.56841 | 28591 ft | 395 kts | 86° |
| 2026-04-23 05:00 | 30.16941 | -92.53679 | 28217 ft | 393 kts | 86° |
| 2026-04-23 05:00 | 30.17089 | -92.50518 | 27834 ft | 390 kts | 86° |
| 2026-04-23 05:00 | 30.17234 | -92.47391 | 27455 ft | 388 kts | 86° |
| 2026-04-23 05:00 | 30.17378 | -92.44283 | 27085 ft | 386 kts | 86° |
| 2026-04-23 05:01 | 30.17519 | -92.41227 | 26716 ft | 384 kts | 86° |
| 2026-04-23 05:01 | 30.17660 | -92.38142 | 26348 ft | 381 kts | 86° |
| 2026-04-23 05:01 | 30.17799 | -92.35085 | 25978 ft | 379 kts | 86° |
| 2026-04-23 05:01 | 30.17937 | -92.32044 | 25612 ft | 377 kts | 86° |
| 2026-04-23 05:02 | 30.18073 | -92.29056 | 25255 ft | 375 kts | 86° |
| 2026-04-23 05:02 | 30.18208 | -92.26049 | 24892 ft | 373 kts | 86° |
| 2026-04-23 05:02 | 30.18342 | -92.23057 | 24532 ft | 371 kts | 86° |
| 2026-04-23 05:02 | 30.18474 | -92.20079 | 24178 ft | 368 kts | 86° |
| 2026-04-23 05:03 | 30.18603 | -92.17159 | 23824 ft | 366 kts | 86° |
| 2026-04-23 05:03 | 30.18733 | -92.14221 | 23471 ft | 364 kts | 86° |
| 2026-04-23 05:03 | 30.18860 | -92.11300 | 23119 ft | 362 kts | 86° |
| 2026-04-23 05:03 | 30.18985 | -92.08427 | 22773 ft | 360 kts | 86° |
| 2026-04-23 05:04 | 30.19111 | -92.05537 | 22422 ft | 358 kts | 86° |
| 2026-04-23 05:04 | 30.19236 | -92.02657 | 22072 ft | 356 kts | 86° |
| 2026-04-23 05:04 | 30.19356 | -91.99837 | 21731 ft | 354 kts | 86° |
| 2026-04-23 05:04 | 30.19353 | -91.97007 | 21564 ft | 347 kts | 92° |
| 2026-04-23 05:05 | 30.19182 | -91.94241 | 21273 ft | 344 kts | 94° |
| 2026-04-23 05:05 | 30.18956 | -91.91494 | 20963 ft | 341 kts | 95° |
| 2026-04-23 05:05 | 30.18723 | -91.88768 | 20632 ft | 340 kts | 94° |
| 2026-04-23 05:05 | 30.18498 | -91.86049 | 20301 ft | 338 kts | 94° |
| 2026-04-23 05:06 | 30.18285 | -91.83377 | 19971 ft | 336 kts | 94° |
| 2026-04-23 05:06 | 30.18079 | -91.80683 | 19638 ft | 335 kts | 94° |
| 2026-04-23 05:06 | 30.17878 | -91.77996 | 19306 ft | 333 kts | 94° |
| 2026-04-23 05:06 | 30.17683 | -91.75358 | 18977 ft | 331 kts | 94° |
| 2026-04-23 05:07 | 30.17488 | -91.72704 | 18646 ft | 330 kts | 93° |
| 2026-04-23 05:07 | 30.17294 | -91.70051 | 18315 ft | 329 kts | 93° |
| 2026-04-23 05:07 | 30.17104 | -91.67450 | 17991 ft | 327 kts | 93° |
| 2026-04-23 05:07 | 30.16913 | -91.64829 | 17660 ft | 326 kts | 93° |
| 2026-04-23 05:08 | 30.16721 | -91.62209 | 17315 ft | 326 kts | 93° |
| 2026-04-23 05:08 | 30.16529 | -91.59577 | 16906 ft | 327 kts | 93° |
| 2026-04-23 05:08 | 30.16340 | -91.57000 | 16579 ft | 326 kts | 93° |
| 2026-04-23 05:08 | 30.16147 | -91.54386 | 16238 ft | 324 kts | 93° |
| 2026-04-23 05:09 | 30.15956 | -91.51791 | 15914 ft | 323 kts | 93° |
| 2026-04-23 05:09 | 30.15764 | -91.49197 | 15587 ft | 322 kts | 93° |
| 2026-04-23 05:09 | 30.15576 | -91.46654 | 15267 ft | 320 kts | 93° |
| 2026-04-23 05:09 | 30.15385 | -91.44093 | 14942 ft | 319 kts | 93° |
| 2026-04-23 05:10 | 30.15194 | -91.41545 | 14620 ft | 317 kts | 93° |
| 2026-04-23 05:10 | 30.15004 | -91.39009 | 14299 ft | 316 kts | 93° |
| 2026-04-23 05:10 | 30.14814 | -91.36479 | 13978 ft | 314 kts | 93° |
| 2026-04-23 05:10 | 30.14627 | -91.33998 | 13663 ft | 312 kts | 93° |
| 2026-04-23 05:11 | 30.14438 | -91.31491 | 13345 ft | 311 kts | 93° |
| 2026-04-23 05:11 | 30.14252 | -91.29011 | 13029 ft | 309 kts | 93° |
| 2026-04-23 05:11 | 30.14064 | -91.26533 | 12716 ft | 308 kts | 93° |
| 2026-04-23 05:11 | 30.13878 | -91.24107 | 12409 ft | 306 kts | 93° |
| 2026-04-23 05:12 | 30.13691 | -91.21658 | 12096 ft | 305 kts | 93° |
| 2026-04-23 05:12 | 30.13505 | -91.19216 | 11788 ft | 304 kts | 93° |
| 2026-04-23 05:12 | 30.13320 | -91.16786 | 11477 ft | 302 kts | 94° |
| 2026-04-23 05:12 | 30.13135 | -91.14371 | 11171 ft | 300 kts | 94° |
| 2026-04-23 05:13 | 30.12953 | -91.12000 | 10869 ft | 299 kts | 94° |
| 2026-04-23 05:13 | 30.12768 | -91.09607 | 10558 ft | 297 kts | 95° |
| 2026-04-23 05:13 | 30.12584 | -91.07226 | 10262 ft | 296 kts | 95° |
| 2026-04-23 05:14 | 30.12229 | -91.02631 | 9976 ft | 280 kts | 95° |
| 2026-04-23 05:14 | 30.12055 | -91.00389 | 9693 ft | 279 kts | 95° |
| 2026-04-23 05:14 | 30.11880 | -90.98161 | 9427 ft | 277 kts | 96° |
| 2026-04-23 05:14 | 30.11706 | -90.95945 | 9153 ft | 275 kts | 96° |
| 2026-04-23 05:15 | 30.11537 | -90.93788 | 8947 ft | 271 kts | 96° |
| 2026-04-23 05:15 | 30.11368 | -90.91629 | 8696 ft | 268 kts | 96° |
| 2026-04-23 05:15 | 30.11199 | -90.89489 | 8427 ft | 267 kts | 96° |
| 2026-04-23 05:15 | 30.11031 | -90.87357 | 8156 ft | 265 kts | 96° |
| 2026-04-23 05:16 | 30.10864 | -90.85237 | 7882 ft | 264 kts | 96° |
| 2026-04-23 05:16 | 30.10699 | -90.83156 | 7613 ft | 262 kts | 96° |
| 2026-04-23 05:16 | 30.10533 | -90.81060 | 7344 ft | 261 kts | 96° |
| 2026-04-23 05:16 | 30.10367 | -90.78975 | 7075 ft | 259 kts | 96° |
| 2026-04-23 05:17 | 30.10204 | -90.76904 | 6810 ft | 258 kts | 96° |
| 2026-04-23 05:17 | 30.10041 | -90.74861 | 6542 ft | 257 kts | 97° |
| 2026-04-23 05:17 | 30.09875 | -90.72805 | 6280 ft | 256 kts | 97° |
| 2026-04-23 05:17 | 30.09710 | -90.70760 | 6014 ft | 254 kts | 97° |
| 2026-04-23 05:18 | 30.09448 | -90.68776 | 5756 ft | 251 kts | 105° |
| 2026-04-23 05:18 | 30.08990 | -90.66837 | 5504 ft | 250 kts | 107° |
| 2026-04-23 05:18 | 30.08502 | -90.64913 | 5246 ft | 249 kts | 108° |
| 2026-04-23 05:18 | 30.08017 | -90.62983 | 4976 ft | 248 kts | 108° |
| 2026-04-23 05:19 | 30.07546 | -90.61075 | 4716 ft | 246 kts | 108° |
| 2026-04-23 05:19 | 30.07087 | -90.59178 | 4460 ft | 245 kts | 108° |
| 2026-04-23 05:19 | 30.06640 | -90.57308 | 4258 ft | 241 kts | 108° |
| 2026-04-23 05:19 | 30.06200 | -90.55470 | 4152 ft | 234 kts | 108° |
| 2026-04-23 05:20 | 30.05774 | -90.53685 | 4038 ft | 226 kts | 108° |
| 2026-04-23 05:20 | 30.05364 | -90.51971 | 3818 ft | 223 kts | 108° |
| 2026-04-23 05:20 | 30.04954 | -90.50247 | 3582 ft | 222 kts | 108° |
| 2026-04-23 05:20 | 30.04543 | -90.48523 | 3339 ft | 219 kts | 108° |
| 2026-04-23 05:21 | 30.04148 | -90.46862 | 3078 ft | 209 kts | 109° |
| 2026-04-23 05:21 | 30.03790 | -90.45325 | 2997 ft | 191 kts | 108° |
| 2026-04-23 05:21 | 30.03439 | -90.43848 | 2894 ft | 192 kts | 109° |
| 2026-04-23 05:21 | 30.03081 | -90.42387 | 2554 ft | 188 kts | 108° |
| 2026-04-23 05:22 | 30.02739 | -90.40952 | 2214 ft | 182 kts | 107° |
| 2026-04-23 05:22 | 30.02393 | -90.39575 | 1902 ft | 174 kts | 108° |
| 2026-04-23 05:22 | 30.02085 | -90.38273 | 1699 ft | 161 kts | 107° |
| 2026-04-23 05:22 | 30.01796 | -90.37051 | 1487 ft | 158 kts | 107° |
| 2026-04-23 05:23 | 30.01509 | -90.35855 | 1293 ft | 157 kts | 107° |
| 2026-04-23 05:23 | 30.01217 | -90.34640 | 1099 ft | 157 kts | 106° |
| 2026-04-23 05:23 | 30.00925 | -90.33425 | 907 ft | 156 kts | 106° |
| 2026-04-23 05:23 | 30.00633 | -90.32213 | 710 ft | 157 kts | 106° |
| 2026-04-23 05:24 | 30.00341 | -90.31000 | 516 ft | 157 kts | 106° |
| 2026-04-23 05:24 | 30.00054 | -90.29800 | 334 ft | 156 kts | 106° |
| 2026-04-23 05:24 | 29.99772 | -90.28591 | 129 ft | 152 kts | 106° |
| 2026-04-23 05:24 | 29.99489 | -90.27458 | 10 ft | 139 kts | 106° |
| 2026-04-23 05:25 | 29.99264 | -90.26522 | 7 ft | 100 kts | 105° |
| 2026-04-23 05:25 | 29.99126 | -90.25953 | 7 ft | 40 kts | 105° |
| 2026-04-23 05:25 | 29.99077 | -90.25745 | 6 ft | 18 kts | 106° |
| 2026-04-23 05:25 | 29.99108 | -90.25641 | 5 ft | 15 kts | 15° |
| 2026-04-23 05:26 | 29.99196 | -90.25596 | 5 ft | 13 kts | 64° |
| 2026-04-23 05:26 | 29.99204 | -90.25494 | 6 ft | 13 kts | 91° |
| 2026-04-23 05:26 | 29.99200 | -90.25395 | 7 ft | 12 kts | 93° |
| 2026-04-23 05:26 | 29.99215 | -90.25302 | 6 ft | 12 kts | 56° |
| 2026-04-23 05:27 | 29.99270 | -90.25255 | 7 ft | 6 kts | 354° |
| 2026-04-23 05:27 | 29.99275 | -90.25296 | 6 ft | 6 kts | 220° |
| 2026-04-23 05:27 | 29.99231 | -90.25316 | 6 ft | 7 kts | 209° |
| 2026-04-23 05:27 | 29.99205 | -90.25370 | 7 ft | 9 kts | 259° |
| 2026-04-23 05:28 | 29.99203 | -90.25439 | 7 ft | 8 kts | 271° |
| 2026-04-23 05:28 | 29.99211 | -90.25505 | 6 ft | 9 kts | 291° |
| 2026-04-23 05:28 | 29.99256 | -90.25547 | 5 ft | 9 kts | 3° |
| 2026-04-23 05:28 | 29.99325 | -90.25538 | 5 ft | 11 kts | 6° |
| 2026-04-23 05:29 | 29.99379 | -90.25498 | 5 ft | 10 kts | 81° |
| 2026-04-23 05:29 | 29.99380 | -90.25435 | 6 ft | 2 kts | 91° |
| 2026-04-23 05:29 | 29.99380 | -90.25432 | 6 ft | 0 kts | 91° |